sensor_id;sensor_type;location;lat;lon;timestamp;temperature;humidity
9865;DHT22;4971;52.398;9.774;2022-09-09T00:11:47;14.30;99.90
9865;DHT22;4971;52.398;9.774;2022-09-09T00:16:57;14.20;99.90
9865;DHT22;4971;52.398;9.774;2022-09-09T00:19:43;14.30;99.90
9865;DHT22;4971;52.398;9.774;2022-09-09T00:22:23;14.30;99.90
9865;DHT22;4971;52.398;9.774;2022-09-09T00:24:54;14.20;99.90
9865;DHT22;4971;52.398;9.774;2022-09-09T00:27:26;14.20;99.90
9865;DHT22;4971;52.398;9.774;2022-09-09T00:32:39;14.10;99.90
9865;DHT22;4971;52.398;9.774;2022-09-09T00:35:17;14.20;99.90
9865;DHT22;4971;52.398;9.774;2022-09-09T00:37:45;14.40;99.90
9865;DHT22;4971;52.398;9.774;2022-09-09T00:40:34;14.20;99.90
9865;DHT22;4971;52.398;9.774;2022-09-09T00:43:18;14.30;99.90
9865;DHT22;4971;52.398;9.774;2022-09-09T00:51:59;14.00;99.90
9865;DHT22;4971;52.398;9.774;2022-09-09T00:57:23;14.00;99.90
9865;DHT22;4971;52.398;9.774;2022-09-09T01:02:39;14.00;99.90
9865;DHT22;4971;52.398;9.774;2022-09-09T01:05:59;14.00;99.90
9865;DHT22;4971;52.398;9.774;2022-09-09T01:08:13;13.90;99.90
9865;DHT22;4971;52.398;9.774;2022-09-09T01:10:50;13.90;99.90
9865;DHT22;4971;52.398;9.774;2022-09-09T01:13:34;13.90;99.90
9865;DHT22;4971;52.398;9.774;2022-09-09T01:16:02;13.90;99.90
9865;DHT22;4971;52.398;9.774;2022-09-09T01:18:33;14.10;99.90
9865;DHT22;4971;52.398;9.774;2022-09-09T01:28:36;13.60;99.90
9865;DHT22;4971;52.398;9.774;2022-09-09T01:31:04;13.90;99.90
9865;DHT22;4971;52.398;9.774;2022-09-09T01:33:31;14.20;99.90
9865;DHT22;4971;52.398;9.774;2022-09-09T01:38:24;13.80;99.90
9865;DHT22;4971;52.398;9.774;2022-09-09T01:40:50;13.60;99.90
9865;DHT22;4971;52.398;9.774;2022-09-09T01:43:19;13.40;99.90
9865;DHT22;4971;52.398;9.774;2022-09-09T01:45:46;17.30;99.90
9865;DHT22;4971;52.398;9.774;2022-09-09T01:48:15;13.80;99.90
9865;DHT22;4971;52.398;9.774;2022-09-09T01:50:41;13.80;99.90
9865;DHT22;4971;52.398;9.774;2022-09-09T01:55:41;13.70;99.90
9865;DHT22;4971;52.398;9.774;2022-09-09T02:03:57;13.60;99.90
9865;DHT22;4971;52.398;9.774;2022-09-09T02:08:55;13.70;99.90
9865;DHT22;4971;52.398;9.774;2022-09-09T02:11:26;13.70;99.90
9865;DHT22;4971;52.398;9.774;2022-09-09T02:13:57;13.70;99.90
9865;DHT22;4971;52.398;9.774;2022-09-09T02:16:40;13.80;99.90
9865;DHT22;4971;52.398;9.774;2022-09-09T02:19:23;13.60;99.90
9865;DHT22;4971;52.398;9.774;2022-09-09T02:21:53;13.70;99.90
9865;DHT22;4971;52.398;9.774;2022-09-09T02:24:20;13.60;99.90
9865;DHT22;4971;52.398;9.774;2022-09-09T02:26:49;13.70;99.90
9865;DHT22;4971;52.398;9.774;2022-09-09T02:29:47;13.70;99.90
9865;DHT22;4971;52.398;9.774;2022-09-09T02:32:15;13.80;99.90
9865;DHT22;4971;52.398;9.774;2022-09-09T02:34:47;13.90;99.90
9865;DHT22;4971;52.398;9.774;2022-09-09T02:37:20;13.70;99.90
9865;DHT22;4971;52.398;9.774;2022-09-09T02:42:13;13.70;99.90
9865;DHT22;4971;52.398;9.774;2022-09-09T02:44:40;13.90;99.90
9865;DHT22;4971;52.398;9.774;2022-09-09T02:57:52;13.80;99.90
9865;DHT22;4971;52.398;9.774;2022-09-09T03:00:24;13.80;99.90
9865;DHT22;4971;52.398;9.774;2022-09-09T03:02:50;13.80;99.90
9865;DHT22;4971;52.398;9.774;2022-09-09T03:05:17;14.00;99.90
9865;DHT22;4971;52.398;9.774;2022-09-09T03:12:35;14.30;99.90
9865;DHT22;4971;52.398;9.774;2022-09-09T03:17:27;13.80;99.90
9865;DHT22;4971;52.398;9.774;2022-09-09T03:19:53;14.00;99.90
9865;DHT22;4971;52.398;9.774;2022-09-09T03:22:20;13.90;99.90
9865;DHT22;4971;52.398;9.774;2022-09-09T03:27:12;14.00;99.90
9865;DHT22;4971;52.398;9.774;2022-09-09T03:29:40;13.90;99.90
9865;DHT22;4971;52.398;9.774;2022-09-09T03:39:24;14.60;99.90
9865;DHT22;4971;52.398;9.774;2022-09-09T03:46:41;13.90;99.90
9865;DHT22;4971;52.398;9.774;2022-09-09T03:58:57;14.10;99.90
9865;DHT22;4971;52.398;9.774;2022-09-09T04:01:23;13.90;99.90
9865;DHT22;4971;52.398;9.774;2022-09-09T04:06:15;14.10;99.90
9865;DHT22;4971;52.398;9.774;2022-09-09T04:08:42;14.70;99.90
9865;DHT22;4971;52.398;9.774;2022-09-09T04:11:08;14.00;99.90
9865;DHT22;4971;52.398;9.774;2022-09-09T04:13:36;14.10;99.90
9865;DHT22;4971;52.398;9.774;2022-09-09T04:16:07;13.90;99.90
9865;DHT22;4971;52.398;9.774;2022-09-09T04:18:34;14.30;99.90
9865;DHT22;4971;52.398;9.774;2022-09-09T04:23:27;14.20;99.90
9865;DHT22;4971;52.398;9.774;2022-09-09T04:25:58;14.20;99.90
9865;DHT22;4971;52.398;9.774;2022-09-09T04:28:26;14.20;99.90
9865;DHT22;4971;52.398;9.774;2022-09-09T04:30:52;14.40;99.90
9865;DHT22;4971;52.398;9.774;2022-09-09T04:33:18;14.20;99.90
9865;DHT22;4971;52.398;9.774;2022-09-09T04:35:49;14.10;99.90
9865;DHT22;4971;52.398;9.774;2022-09-09T04:38:16;14.20;99.90
9865;DHT22;4971;52.398;9.774;2022-09-09T04:40:48;14.30;99.90
9865;DHT22;4971;52.398;9.774;2022-09-09T04:43:14;14.10;99.90
9865;DHT22;4971;52.398;9.774;2022-09-09T04:45:40;14.00;99.90
9865;DHT22;4971;52.398;9.774;2022-09-09T04:50:33;14.00;99.90
9865;DHT22;4971;52.398;9.774;2022-09-09T04:53:02;14.30;99.90
9865;DHT22;4971;52.398;9.774;2022-09-09T04:55:30;14.20;99.90
9865;DHT22;4971;52.398;9.774;2022-09-09T05:00:24;14.30;99.90
9865;DHT22;4971;52.398;9.774;2022-09-09T05:12:40;14.50;99.90
9865;DHT22;4971;52.398;9.774;2022-09-09T05:17:32;14.40;99.90
9865;DHT22;4971;52.398;9.774;2022-09-09T05:24:51;14.30;99.90
9865;DHT22;4971;52.398;9.774;2022-09-09T05:27:18;14.60;99.90
9865;DHT22;4971;52.398;9.774;2022-09-09T05:29:45;14.60;99.90
9865;DHT22;4971;52.398;9.774;2022-09-09T05:46:50;14.70;99.90
9865;DHT22;4971;52.398;9.774;2022-09-09T05:54:09;15.00;99.90
9865;DHT22;4971;52.398;9.774;2022-09-09T05:59:01;14.70;99.90
9865;DHT22;4971;52.398;9.774;2022-09-09T06:01:30;14.70;99.90
9865;DHT22;4971;52.398;9.774;2022-09-09T06:03:56;14.70;99.90
9865;DHT22;4971;52.398;9.774;2022-09-09T06:06:24;14.80;99.90
9865;DHT22;4971;52.398;9.774;2022-09-09T06:08:53;15.20;99.90
9865;DHT22;4971;52.398;9.774;2022-09-09T06:11:22;14.70;99.90
9865;DHT22;4971;52.398;9.774;2022-09-09T06:16:17;14.90;99.90
9865;DHT22;4971;52.398;9.774;2022-09-09T06:21:18;15.10;99.90
9865;DHT22;4971;52.398;9.774;2022-09-09T06:28:36;15.40;99.90
9865;DHT22;4971;52.398;9.774;2022-09-09T06:31:07;15.20;99.90
9865;DHT22;4971;52.398;9.774;2022-09-09T06:33:38;15.30;99.90
9865;DHT22;4971;52.398;9.774;2022-09-09T06:36:07;15.30;99.90
9865;DHT22;4971;52.398;9.774;2022-09-09T06:50:46;15.50;99.90
9865;DHT22;4971;52.398;9.774;2022-09-09T06:55:38;15.30;99.90
9865;DHT22;4971;52.398;9.774;2022-09-09T06:58:08;15.70;99.90
9865;DHT22;4971;52.398;9.774;2022-09-09T07:10:21;15.70;99.90
9865;DHT22;4971;52.398;9.774;2022-09-09T07:12:51;15.60;99.90
9865;DHT22;4971;52.398;9.774;2022-09-09T07:15:17;16.00;99.90
9865;DHT22;4971;52.398;9.774;2022-09-09T07:25:03;15.90;99.90
9865;DHT22;4971;52.398;9.774;2022-09-09T07:42:08;16.40;99.90
9865;DHT22;4971;52.398;9.774;2022-09-09T07:44:36;15.80;99.90
9865;DHT22;4971;52.398;9.774;2022-09-09T07:49:32;16.10;99.90
9865;DHT22;4971;52.398;9.774;2022-09-09T07:51:58;16.30;99.90
9865;DHT22;4971;52.398;9.774;2022-09-09T07:56:50;16.70;99.90
9865;DHT22;4971;52.398;9.774;2022-09-09T07:59:16;16.70;99.90
9865;DHT22;4971;52.398;9.774;2022-09-09T08:01:45;17.00;99.90
9865;DHT22;4971;52.398;9.774;2022-09-09T08:04:16;17.10;99.90
9865;DHT22;4971;52.398;9.774;2022-09-09T08:07:05;17.10;99.90
9865;DHT22;4971;52.398;9.774;2022-09-09T08:11:58;17.20;99.90
9865;DHT22;4971;52.398;9.774;2022-09-09T08:14:24;16.90;99.90
9865;DHT22;4971;52.398;9.774;2022-09-09T08:16:50;17.00;99.90
9865;DHT22;4971;52.398;9.774;2022-09-09T08:19:16;17.50;99.90
9865;DHT22;4971;52.398;9.774;2022-09-09T08:21:43;17.70;99.90
9865;DHT22;4971;52.398;9.774;2022-09-09T08:24:10;17.80;99.90
9865;DHT22;4971;52.398;9.774;2022-09-09T08:26:41;17.90;99.90
9865;DHT22;4971;52.398;9.774;2022-09-09T08:29:08;18.00;99.90
9865;DHT22;4971;52.398;9.774;2022-09-09T08:31:44;18.20;99.90
9865;DHT22;4971;52.398;9.774;2022-09-09T08:34:10;18.00;99.90
9865;DHT22;4971;52.398;9.774;2022-09-09T08:36:38;18.40;99.90
9865;DHT22;4971;52.398;9.774;2022-09-09T08:39:06;18.50;99.90
9865;DHT22;4971;52.398;9.774;2022-09-09T08:44:08;16.50;99.90
9865;DHT22;4971;52.398;9.774;2022-09-09T08:46:53;18.40;99.90
9865;DHT22;4971;52.398;9.774;2022-09-09T08:52:23;18.10;99.90
9865;DHT22;4971;52.398;9.774;2022-09-09T08:54:51;17.70;99.90
9865;DHT22;4971;52.398;9.774;2022-09-09T08:57:23;18.00;99.90
9865;DHT22;4971;52.398;9.774;2022-09-09T08:59:52;18.20;99.90
9865;DHT22;4971;52.398;9.774;2022-09-09T09:02:34;18.10;99.90
9865;DHT22;4971;52.398;9.774;2022-09-09T09:05:19;18.10;99.90
9865;DHT22;4971;52.398;9.774;2022-09-09T09:13:20;18.60;99.90
9865;DHT22;4971;52.398;9.774;2022-09-09T09:15:55;18.70;99.90
9865;DHT22;4971;52.398;9.774;2022-09-09T09:21:12;19.00;99.90
9865;DHT22;4971;52.398;9.774;2022-09-09T09:23:57;19.30;99.90
9865;DHT22;4971;52.398;9.774;2022-09-09T09:26:29;19.40;99.90
9865;DHT22;4971;52.398;9.774;2022-09-09T09:28:56;19.40;99.90
9865;DHT22;4971;52.398;9.774;2022-09-09T09:31:24;19.80;99.90
9865;DHT22;4971;52.398;9.774;2022-09-09T09:33:52;19.60;99.90
9865;DHT22;4971;52.398;9.774;2022-09-09T09:36:20;19.80;99.90
9865;DHT22;4971;52.398;9.774;2022-09-09T09:39:02;19.80;99.90
9865;DHT22;4971;52.398;9.774;2022-09-09T09:41:38;19.90;99.90
9865;DHT22;4971;52.398;9.774;2022-09-09T09:44:06;20.10;99.90
9865;DHT22;4971;52.398;9.774;2022-09-09T09:46:46;20.60;99.90
9865;DHT22;4971;52.398;9.774;2022-09-09T09:51:39;20.50;99.90
9865;DHT22;4971;52.398;9.774;2022-09-09T10:01:27;20.80;99.90
9865;DHT22;4971;52.398;9.774;2022-09-09T10:03:58;20.70;99.90
9865;DHT22;4971;52.398;9.774;2022-09-09T10:06:35;20.70;99.90
9865;DHT22;4971;52.398;9.774;2022-09-09T10:09:01;20.80;99.90
9865;DHT22;4971;52.398;9.774;2022-09-09T10:19:13;23.40;99.90
9865;DHT22;4971;52.398;9.774;2022-09-09T10:27:50;24.50;99.90
9865;DHT22;4971;52.398;9.774;2022-09-09T10:38:13;23.50;99.90
9865;DHT22;4971;52.398;9.774;2022-09-09T10:46:45;21.40;99.90
9865;DHT22;4971;52.398;9.774;2022-09-09T10:55:20;20.30;99.90
9865;DHT22;4971;52.398;9.774;2022-09-09T10:57:53;20.20;99.90
9865;DHT22;4971;52.398;9.774;2022-09-09T11:00:47;19.90;99.90
9865;DHT22;4971;52.398;9.774;2022-09-09T11:03:19;19.80;99.90
9865;DHT22;4971;52.398;9.774;2022-09-09T11:05:50;19.70;99.90
9865;DHT22;4971;52.398;9.774;2022-09-09T11:11:19;19.60;99.90
9865;DHT22;4971;52.398;9.774;2022-09-09T11:19:09;19.80;99.90
9865;DHT22;4971;52.398;9.774;2022-09-09T11:21:46;19.70;99.90
9865;DHT22;4971;52.398;9.774;2022-09-09T11:26:55;18.90;99.90
9865;DHT22;4971;52.398;9.774;2022-09-09T11:32:29;19.00;99.90
9865;DHT22;4971;52.398;9.774;2022-09-09T11:35:09;18.80;99.90
9865;DHT22;4971;52.398;9.774;2022-09-09T11:40:47;18.40;99.90
9865;DHT22;4971;52.398;9.774;2022-09-09T11:43:24;18.20;99.90
9865;DHT22;4971;52.398;9.774;2022-09-09T11:45:56;17.90;99.90
9865;DHT22;4971;52.398;9.774;2022-09-09T11:51:05;17.50;99.90
9865;DHT22;4971;52.398;9.774;2022-09-09T11:53:34;17.20;99.90
9865;DHT22;4971;52.398;9.774;2022-09-09T11:56:11;17.10;99.90
9865;DHT22;4971;52.398;9.774;2022-09-09T11:58:41;16.70;99.90
9865;DHT22;4971;52.398;9.774;2022-09-09T12:01:33;16.60;99.90
9865;DHT22;4971;52.398;9.774;2022-09-09T12:12:25;16.20;99.90
9865;DHT22;4971;52.398;9.774;2022-09-09T12:15:01;15.60;99.90
9865;DHT22;4971;52.398;9.774;2022-09-09T12:17:29;15.90;99.90
9865;DHT22;4971;52.398;9.774;2022-09-09T12:20:15;15.90;99.90
9865;DHT22;4971;52.398;9.774;2022-09-09T12:25:58;15.80;99.90
9865;DHT22;4971;52.398;9.774;2022-09-09T12:34:54;16.30;99.90
9865;DHT22;4971;52.398;9.774;2022-09-09T12:39:57;16.50;99.90
9865;DHT22;4971;52.398;9.774;2022-09-09T12:42:24;16.70;99.90
9865;DHT22;4971;52.398;9.774;2022-09-09T12:44:59;16.90;99.90
9865;DHT22;4971;52.398;9.774;2022-09-09T12:52:35;17.70;99.90
9865;DHT22;4971;52.398;9.774;2022-09-09T12:55:05;17.80;99.90
9865;DHT22;4971;52.398;9.774;2022-09-09T12:57:36;17.90;99.90
9865;DHT22;4971;52.398;9.774;2022-09-09T13:00:23;18.00;99.90
9865;DHT22;4971;52.398;9.774;2022-09-09T13:02:58;18.20;99.90
9865;DHT22;4971;52.398;9.774;2022-09-09T13:05:35;18.20;99.90
9865;DHT22;4971;52.398;9.774;2022-09-09T13:08:03;18.50;99.90
9865;DHT22;4971;52.398;9.774;2022-09-09T13:10:33;18.50;99.90
9865;DHT22;4971;52.398;9.774;2022-09-09T13:15:28;18.40;99.90
9865;DHT22;4971;52.398;9.774;2022-09-09T13:17:56;18.60;99.90
9865;DHT22;4971;52.398;9.774;2022-09-09T13:20:23;16.30;99.90
9865;DHT22;4971;52.398;9.774;2022-09-09T13:22:51;18.50;99.90
9865;DHT22;4971;52.398;9.774;2022-09-09T13:25:29;18.40;99.90
9865;DHT22;4971;52.398;9.774;2022-09-09T13:28:02;18.70;99.90
9865;DHT22;4971;52.398;9.774;2022-09-09T13:35:49;18.30;99.90
9865;DHT22;4971;52.398;9.774;2022-09-09T13:38:16;18.40;99.90
9865;DHT22;4971;52.398;9.774;2022-09-09T13:40:56;18.30;99.90
9865;DHT22;4971;52.398;9.774;2022-09-09T13:43:26;18.30;99.90
9865;DHT22;4971;52.398;9.774;2022-09-09T13:45:57;18.20;99.90
9865;DHT22;4971;52.398;9.774;2022-09-09T13:48:23;18.10;99.90
9865;DHT22;4971;52.398;9.774;2022-09-09T13:51:01;18.10;99.90
9865;DHT22;4971;52.398;9.774;2022-09-09T13:58:22;17.90;99.90
9865;DHT22;4971;52.398;9.774;2022-09-09T14:00:50;17.90;99.90
9865;DHT22;4971;52.398;9.774;2022-09-09T14:05:44;17.80;99.90
9865;DHT22;4971;52.398;9.774;2022-09-09T14:08:21;17.60;99.90
9865;DHT22;4971;52.398;9.774;2022-09-09T14:13:14;18.00;99.90
9865;DHT22;4971;52.398;9.774;2022-09-09T14:15:40;18.20;99.90
9865;DHT22;4971;52.398;9.774;2022-09-09T14:18:05;18.60;99.90
9865;DHT22;4971;52.398;9.774;2022-09-09T14:20:31;17.90;99.90
9865;DHT22;4971;52.398;9.774;2022-09-09T14:30:16;17.90;99.90
9865;DHT22;4971;52.398;9.774;2022-09-09T14:40:00;18.40;99.90
9865;DHT22;4971;52.398;9.774;2022-09-09T14:42:26;18.40;99.90
9865;DHT22;4971;52.398;9.774;2022-09-09T14:54:37;18.60;99.90
9865;DHT22;4971;52.398;9.774;2022-09-09T14:57:02;18.60;99.90
9865;DHT22;4971;52.398;9.774;2022-09-09T15:04:20;18.70;99.90
9865;DHT22;4971;52.398;9.774;2022-09-09T15:14:07;18.50;99.90
9865;DHT22;4971;52.398;9.774;2022-09-09T15:16:34;18.50;99.90
9865;DHT22;4971;52.398;9.774;2022-09-09T15:19:01;18.50;99.90
9865;DHT22;4971;52.398;9.774;2022-09-09T15:21:29;18.50;99.90
9865;DHT22;4971;52.398;9.774;2022-09-09T15:23:55;18.50;99.90
9865;DHT22;4971;52.398;9.774;2022-09-09T15:28:48;18.80;99.90
9865;DHT22;4971;52.398;9.774;2022-09-09T15:31:20;18.90;99.90
9865;DHT22;4971;52.398;9.774;2022-09-09T15:33:54;18.80;99.90
9865;DHT22;4971;52.398;9.774;2022-09-09T15:38:57;18.80;99.90
9865;DHT22;4971;52.398;9.774;2022-09-09T15:41:24;18.70;99.90
9865;DHT22;4971;52.398;9.774;2022-09-09T15:43:51;19.00;99.90
9865;DHT22;4971;52.398;9.774;2022-09-09T15:48:45;18.70;99.90
9865;DHT22;4971;52.398;9.774;2022-09-09T15:51:11;18.80;99.90
9865;DHT22;4971;52.398;9.774;2022-09-09T15:53:38;18.70;99.90
9865;DHT22;4971;52.398;9.774;2022-09-09T15:56:06;18.70;99.90
9865;DHT22;4971;52.398;9.774;2022-09-09T15:58:36;19.00;99.90
9865;DHT22;4971;52.398;9.774;2022-09-09T16:01:03;19.00;99.90
9865;DHT22;4971;52.398;9.774;2022-09-09T16:03:33;18.90;99.90
9865;DHT22;4971;52.398;9.774;2022-09-09T16:08:37;18.80;99.90
9865;DHT22;4971;52.398;9.774;2022-09-09T16:11:10;18.80;99.90
9865;DHT22;4971;52.398;9.774;2022-09-09T16:13:36;18.80;99.90
9865;DHT22;4971;52.398;9.774;2022-09-09T16:16:03;18.80;99.90
9865;DHT22;4971;52.398;9.774;2022-09-09T16:18:43;18.40;99.90
9865;DHT22;4971;52.398;9.774;2022-09-09T16:21:16;18.90;99.90
9865;DHT22;4971;52.398;9.774;2022-09-09T16:23:42;18.70;99.90
9865;DHT22;4971;52.398;9.774;2022-09-09T16:26:12;18.60;99.90
9865;DHT22;4971;52.398;9.774;2022-09-09T16:28:38;18.60;99.90
9865;DHT22;4971;52.398;9.774;2022-09-09T16:31:10;18.80;99.90
9865;DHT22;4971;52.398;9.774;2022-09-09T16:33:37;18.80;99.90
9865;DHT22;4971;52.398;9.774;2022-09-09T16:36:11;18.90;99.90
9865;DHT22;4971;52.398;9.774;2022-09-09T16:38:38;18.90;99.90
9865;DHT22;4971;52.398;9.774;2022-09-09T16:41:08;18.90;99.90
9865;DHT22;4971;52.398;9.774;2022-09-09T16:43:34;18.80;99.90
9865;DHT22;4971;52.398;9.774;2022-09-09T16:46:14;18.80;99.90
9865;DHT22;4971;52.398;9.774;2022-09-09T16:51:15;18.70;99.90
9865;DHT22;4971;52.398;9.774;2022-09-09T16:53:42;18.60;99.90
9865;DHT22;4971;52.398;9.774;2022-09-09T16:56:10;18.40;99.90
9865;DHT22;4971;52.398;9.774;2022-09-09T17:01:04;18.40;99.90
9865;DHT22;4971;52.398;9.774;2022-09-09T17:08:23;18.30;99.90
9865;DHT22;4971;52.398;9.774;2022-09-09T17:13:16;18.30;99.90
9865;DHT22;4971;52.398;9.774;2022-09-09T17:15:45;18.20;99.90
9865;DHT22;4971;52.398;9.774;2022-09-09T17:20:38;18.20;99.90
9865;DHT22;4971;52.398;9.774;2022-09-09T17:23:05;17.90;99.90
9865;DHT22;4971;52.398;9.774;2022-09-09T17:25:31;17.70;99.90
9865;DHT22;4971;52.398;9.774;2022-09-09T17:27:57;18.40;99.90
9865;DHT22;4971;52.398;9.774;2022-09-09T17:32:49;18.10;99.90
9865;DHT22;4971;52.398;9.774;2022-09-09T17:35:15;17.90;99.90
9865;DHT22;4971;52.398;9.774;2022-09-09T17:47:27;17.40;99.90
9865;DHT22;4971;52.398;9.774;2022-09-09T17:49:53;17.20;99.90
9865;DHT22;4971;52.398;9.774;2022-09-09T17:57:12;17.70;99.90
9865;DHT22;4971;52.398;9.774;2022-09-09T18:02:04;17.20;99.90
9865;DHT22;4971;52.398;9.774;2022-09-09T18:06:56;17.50;99.90
9865;DHT22;4971;52.398;9.774;2022-09-09T18:09:24;17.30;99.90
9865;DHT22;4971;52.398;9.774;2022-09-09T18:11:53;17.10;99.90
9865;DHT22;4971;52.398;9.774;2022-09-09T18:14:22;17.20;99.90
9865;DHT22;4971;52.398;9.774;2022-09-09T18:16:49;17.80;99.90
9865;DHT22;4971;52.398;9.774;2022-09-09T18:19:18;17.30;99.90
9865;DHT22;4971;52.398;9.774;2022-09-09T18:24:15;17.10;99.90
9865;DHT22;4971;52.398;9.774;2022-09-09T18:29:10;17.00;99.90
9865;DHT22;4971;52.398;9.774;2022-09-09T18:34:05;17.00;99.90
9865;DHT22;4971;52.398;9.774;2022-09-09T18:36:34;17.10;99.90
9865;DHT22;4971;52.398;9.774;2022-09-09T18:39:02;16.70;99.90
9865;DHT22;4971;52.398;9.774;2022-09-09T18:41:40;17.00;99.90
9865;DHT22;4971;52.398;9.774;2022-09-09T18:44:17;16.90;99.90
9865;DHT22;4971;52.398;9.774;2022-09-09T18:46:44;17.10;99.90
9865;DHT22;4971;52.398;9.774;2022-09-09T18:49:10;16.90;99.90
9865;DHT22;4971;52.398;9.774;2022-09-09T18:51:37;16.40;99.90
9865;DHT22;4971;52.398;9.774;2022-09-09T18:54:07;16.80;99.90
9865;DHT22;4971;52.398;9.774;2022-09-09T18:59:01;17.00;99.90
9865;DHT22;4971;52.398;9.774;2022-09-09T19:01:28;17.10;99.90
9865;DHT22;4971;52.398;9.774;2022-09-09T19:03:54;16.80;99.90
9865;DHT22;4971;52.398;9.774;2022-09-09T19:06:25;17.20;99.90
9865;DHT22;4971;52.398;9.774;2022-09-09T19:11:20;17.10;99.90
9865;DHT22;4971;52.398;9.774;2022-09-09T19:13:56;16.80;99.90
9865;DHT22;4971;52.398;9.774;2022-09-09T19:16:24;16.30;99.90
9865;DHT22;4971;52.398;9.774;2022-09-09T19:21:26;16.40;99.90
9865;DHT22;4971;52.398;9.774;2022-09-09T19:23:59;16.30;99.90
9865;DHT22;4971;52.398;9.774;2022-09-09T19:26:30;16.00;99.90
9865;DHT22;4971;52.398;9.774;2022-09-09T19:28:58;15.90;99.90
9865;DHT22;4971;52.398;9.774;2022-09-09T19:33:53;15.90;99.90
9865;DHT22;4971;52.398;9.774;2022-09-09T19:36:20;15.70;99.90
9865;DHT22;4971;52.398;9.774;2022-09-09T19:38:47;15.60;99.90
9865;DHT22;4971;52.398;9.774;2022-09-09T19:41:18;15.30;99.90
9865;DHT22;4971;52.398;9.774;2022-09-09T19:43:45;15.60;99.90
9865;DHT22;4971;52.398;9.774;2022-09-09T19:46:12;15.60;99.90
9865;DHT22;4971;52.398;9.774;2022-09-09T19:48:40;15.50;99.90
9865;DHT22;4971;52.398;9.774;2022-09-09T19:51:08;15.40;99.90
9865;DHT22;4971;52.398;9.774;2022-09-09T19:53:36;16.00;99.90
9865;DHT22;4971;52.398;9.774;2022-09-09T19:56:03;15.40;99.90
9865;DHT22;4971;52.398;9.774;2022-09-09T19:58:30;15.30;99.90
9865;DHT22;4971;52.398;9.774;2022-09-09T20:01:05;15.50;99.90
9865;DHT22;4971;52.398;9.774;2022-09-09T20:03:34;15.40;99.90
9865;DHT22;4971;52.398;9.774;2022-09-09T20:06:00;15.30;99.90
9865;DHT22;4971;52.398;9.774;2022-09-09T20:08:26;15.40;99.90
9865;DHT22;4971;52.398;9.774;2022-09-09T20:10:57;15.40;99.90
9865;DHT22;4971;52.398;9.774;2022-09-09T20:13:27;15.30;99.90
9865;DHT22;4971;52.398;9.774;2022-09-09T20:16:00;15.30;99.90
9865;DHT22;4971;52.398;9.774;2022-09-09T20:18:28;15.20;99.90
9865;DHT22;4971;52.398;9.774;2022-09-09T20:20:57;15.30;99.90
9865;DHT22;4971;52.398;9.774;2022-09-09T20:23:25;15.70;99.90
9865;DHT22;4971;52.398;9.774;2022-09-09T20:30:46;15.20;99.90
9865;DHT22;4971;52.398;9.774;2022-09-09T20:33:12;15.00;99.90
9865;DHT22;4971;52.398;9.774;2022-09-09T20:35:39;15.20;99.90
9865;DHT22;4971;52.398;9.774;2022-09-09T20:38:05;14.90;99.90
9865;DHT22;4971;52.398;9.774;2022-09-09T20:40:35;15.20;99.90
9865;DHT22;4971;52.398;9.774;2022-09-09T21:00:08;15.10;99.90
9865;DHT22;4971;52.398;9.774;2022-09-09T21:02:34;15.00;99.90
9865;DHT22;4971;52.398;9.774;2022-09-09T21:04:59;15.20;99.90
9865;DHT22;4971;52.398;9.774;2022-09-09T21:07:26;14.80;99.90
9865;DHT22;4971;52.398;9.774;2022-09-09T21:12:22;15.00;99.90
9865;DHT22;4971;52.398;9.774;2022-09-09T21:14:49;14.80;99.90
9865;DHT22;4971;52.398;9.774;2022-09-09T21:17:16;14.60;99.90
9865;DHT22;4971;52.398;9.774;2022-09-09T21:22:08;15.30;99.90
9865;DHT22;4971;52.398;9.774;2022-09-09T21:24:34;14.60;99.90
9865;DHT22;4971;52.398;9.774;2022-09-09T21:27:00;14.80;99.90
9865;DHT22;4971;52.398;9.774;2022-09-09T21:44:05;14.90;99.90
9865;DHT22;4971;52.398;9.774;2022-09-09T21:48:57;14.90;99.90
9865;DHT22;4971;52.398;9.774;2022-09-09T21:51:23;14.90;99.90
9865;DHT22;4971;52.398;9.774;2022-09-09T21:53:49;14.90;99.90
9865;DHT22;4971;52.398;9.774;2022-09-09T21:56:18;14.90;99.90
9865;DHT22;4971;52.398;9.774;2022-09-09T21:58:44;14.80;99.90
9865;DHT22;4971;52.398;9.774;2022-09-09T22:01:12;14.80;99.90
9865;DHT22;4971;52.398;9.774;2022-09-09T22:03:39;14.90;99.90
9865;DHT22;4971;52.398;9.774;2022-09-09T22:06:05;14.80;99.90
9865;DHT22;4971;52.398;9.774;2022-09-09T22:08:33;15.00;99.90
9865;DHT22;4971;52.398;9.774;2022-09-09T22:11:05;14.90;99.90
9865;DHT22;4971;52.398;9.774;2022-09-09T22:16:01;14.90;99.90
9865;DHT22;4971;52.398;9.774;2022-09-09T22:20:54;14.60;99.90
9865;DHT22;4971;52.398;9.774;2022-09-09T22:25:48;14.80;99.90
9865;DHT22;4971;52.398;9.774;2022-09-09T22:33:07;14.90;99.90
9865;DHT22;4971;52.398;9.774;2022-09-09T22:35:39;14.90;99.90
9865;DHT22;4971;52.398;9.774;2022-09-09T22:40:37;14.90;99.90
9865;DHT22;4971;52.398;9.774;2022-09-09T22:43:05;15.20;99.90
9865;DHT22;4971;52.398;9.774;2022-09-09T22:45:33;14.90;99.90
9865;DHT22;4971;52.398;9.774;2022-09-09T22:47:59;14.80;99.90
9865;DHT22;4971;52.398;9.774;2022-09-09T22:52:52;14.80;99.90
9865;DHT22;4971;52.398;9.774;2022-09-09T23:00:11;14.90;99.90
9865;DHT22;4971;52.398;9.774;2022-09-09T23:02:38;15.00;99.90
9865;DHT22;4971;52.398;9.774;2022-09-09T23:05:05;14.80;99.90
9865;DHT22;4971;52.398;9.774;2022-09-09T23:07:34;14.70;99.90
9865;DHT22;4971;52.398;9.774;2022-09-09T23:17:21;14.60;99.90
9865;DHT22;4971;52.398;9.774;2022-09-09T23:22:23;14.70;99.90
9865;DHT22;4971;52.398;9.774;2022-09-09T23:37:02;14.50;99.90
9865;DHT22;4971;52.398;9.774;2022-09-09T23:44:20;14.70;99.90
9865;DHT22;4971;52.398;9.774;2022-09-09T23:54:04;14.70;99.90
9865;DHT22;4971;52.398;9.774;2022-09-09T23:56:36;14.80;99.90
9865;DHT22;4971;52.398;9.774;2022-09-09T23:59:06;14.80;99.90
